| Date | Time | Temp. (oF) | Dew Point (oF) | Rel. Hum. (%) | Press. (in.) | Wind Dir. | Wind Speed (mph) | Hourly Rainfall (in.) |
|
|---|---|---|---|---|---|---|---|---|---|
| 1 | 12/13 | 00:00 | 18 | 0 | 45 | 29.65 | WNW | 12 | 0.00 |
| 2 | 12/12 | 23:00 | 19 | 1 | 45 | 29.64 | W | 16 | 0.00 |
| 3 | 12/12 | 22:00 | 21 | 2 | 44 | 29.64 | NW | 16 | 0.00 |
| 4 | 12/12 | 21:00 | 23 | 4 | 44 | 29.65 | NW | 11 | 0.00 |
| 5 | 12/12 | 20:00 | 25 | 6 | 44 | 29.63 | WNW | 11 | 0.00 |
| 6 | 12/12 | 19:00 | 29 | 13 | 52 | 29.58 | WNW | 18 | 0.00 |
| 7 | 12/12 | 18:00 | 32 | 16 | 53 | 29.57 | NNW | 9 | 0.00 |
| 8 | 12/12 | 17:00 | 34 | 17 | 50 | 29.54 | WNW | 13 | 0.00 |
| 9 | 12/12 | 16:00 | 36 | 23 | 59 | 29.51 | NW | 15 | 0.00 |
| 10 | 12/12 | 15:00 | 41 | 27 | 58 | 29.46 | NW | 6 | 0.00 |
| 11 | 12/12 | 14:00 | 41 | 31 | 68 | 29.46 | W | 9 | 0.00 |
| 12 | 12/12 | 13:00 | 41 | 32 | 71 | 29.47 | WNW | 3 | 0.00 |
| 13 | 12/12 | 12:00 | 40 | 31 | 72 | 29.48 | WSW | 4 | 0.00 |
| 14 | 12/12 | 11:00 | 40 | 32 | 75 | 29.51 | WNW | 2 | 0.00 |
| 15 | 12/12 | 10:00 | 39 | 33 | 80 | 29.54 | SW | 4 | 0.00 |
| 16 | 12/12 | 09:00 | 38 | 34 | 88 | 29.55 | SSE | 3 | 0.00 |
| 17 | 12/12 | 08:00 | 37 | 34 | 89 | 29.59 | S | 4 | 0.00 |
| 18 | 12/12 | 07:00 | 36 | 33 | 89 | 29.59 | S | 1 | 0.00 |
| 19 | 12/12 | 06:00 | 37 | 33 | 86 | 29.61 | S | 4 | 0.00 |
| 20 | 12/12 | 05:00 | 37 | 32 | 84 | 29.63 | SSE | 5 | 0.00 |
| 21 | 12/12 | 04:00 | 37 | 31 | 81 | 29.67 | ESE | 5 | 0.00 |
| 22 | 12/12 | 03:00 | 37 | 30 | 77 | 29.72 | SSE | 7 | 0.00 |
| 23 | 12/12 | 02:00 | 35 | 28 | 77 | 29.76 | SE | 5 | 0.00 |
| 24 | 12/12 | 01:00 | 34 | 27 | 77 | 29.79 | SE | 3 | 0.00 |